Airfield :
LOGIN :

Register | Disclaimer

   EN    FR    IT 

 










Legend :    VFR   Marginal VFR   IFR   Intensive IFR   Very Intensive IFR
Visi :
Ceiling :
>= 8 km
>= 3000ft
5 to 8 km
1000 to 3000 ft
1500m to 5 km
500 to 1000 ft
800 to 1500m
200 to 500 ft
< 800m
< 200 ft
Symbols :   Thunderstorms  Fog  Heavy snow  Heavy precipitations  Wind > 20 kt
SIGMETs :     Misc.  Thunderstorms  Icing  Turbulence  Mountain Waves  Volcanic Ashes






- Airport Elevation : 183 ft
- IATA code : HAJ


EDDV - Hanover/Langenhagen Int.

CURRENT METAR :
  • 250820Z 31014KT 9999 FEW024 BKN032 12/07 Q1030 TEMPO 31015G25KT

EXPIRED METARs :
  • 250750Z 30013KT 270V340 9999 FEW024 BKN032 12/07 Q1030 TEMPO 31015G25KT
  • 250720Z 32014KT 9999 FEW024 BKN032 12/07 Q1029 TEMPO 32015G25KT
  • 250650Z 31012KT 9999 FEW024 BKN038 12/07 Q1029 TEMPO 31015G25KT
  • 250620Z 30013KT 9999 FEW014 SCT041 12/08 Q1029 TEMPO 30015G25KT BKN013
  • 250550Z 30017KT 9999 FEW014 SCT044 12/08 Q1028 TEMPO 30015G25KT BKN013

TAF TAF EDDV
Valid from the 25 at 06:00 until the 26 at 06:00 UTC


250500Z 2506/2606 29013KT 9999 SCT030
TEMPO 2506/2512 31015G25KT
PROB30
TEMPO 2506/2508 BKN013
BECMG 2516/2518 30008KT
BECMG 2520/2522 29003KT
BECMG 2523/2601 2500 BCFG
PROB30
TEMPO 2601/2605 0500 FG BKN002



MET'MAP, your aeronautical weather chart ! - Copyright ORBIFLY December 2007 - Disclaimer

ORBIFLY MET'MAP TEAM :

Programming & Development : Alexandra Zaïnal
Concept & original design : Baudouin d'Aumeries
Assistance for programming : Marc-Olivier Méhu
Technical & hardware support : Manuel Goepfert

Contact : metmap@orbifly.com




SOURCES & CREDITS :

   NOAA